Terminal Aerodrome Forecast
Issued by NWS

Home | Current Version | Previous Version | Text Only | Print | Product List | Glossary On
Versions: 1 2 3 4 5 6 7 8 9 10 11 12 13 14 15 16
000
FTAK31 PAJN 211728
TAFAKT
TAF
PAKT 211728Z 2118/2218 VRB05KT P6SM FEW002 SCT060
     FM212300 15006KT P6SM VCSH SCT030 BKN080
     FM220400 14010KT 6SM -SHRA BR BKN025 OVC040
     FM220800 14013KT 6SM -SHRA BR BKN025 OVC040
     FM221500 14010KT 6SM -SHRA BR BKN015 OVC030
      AMD LTD TO CLD VIS AND WIND 2206/2215=

USA.gov is the U.S. government's official web portal to all federal, state and local government web resources and services.